Time;durP1;ratioP1;P1;durP2;ratioP2;P2;SDS_P1;SDS_P2;PMS_P1;PMS_P2;Temp;Humidity;BMP_temperature;BMP_pressure;BME280_temperature;BME280_humidity;BME280_pressure;Samples;Min_cycle;Max_cycle;Signal;HPM_P1;HPM_P2
2023/04/26 00:02:14;;;;;;;16.20;7.30;;;;;;;6.26;73.99;97294.98;106928;1275;22538;-80
2023/04/26 00:04:42;;;;;;;14.50;7.20;;;;;;;6.26;73.65;97298.83;106965;1275;22536;-81
2023/04/26 00:07:12;;;;;;;14.80;7.00;;;;;;;6.25;73.18;97292.58;107021;1275;22540;-82
2023/04/26 00:09:41;;;;;;;13.30;6.50;;;;;;;6.21;73.34;97293.92;106986;1252;24052;-81
2023/04/26 00:12:10;;;;;;;13.20;7.20;;;;;;;6.18;73.52;97288.91;106676;1276;22622;-82
2023/04/26 00:14:38;;;;;;;10.40;6.40;;;;;;;6.16;73.24;97287.61;107006;1275;22643;-81
2023/04/26 00:17:06;;;;;;;10.10;6.60;;;;;;;6.13;72.56;97291.60;106938;1275;25322;-81
2023/04/26 00:19:34;;;;;;;12.50;6.50;;;;;;;6.10;72.22;97291.09;106984;1275;25217;-81
2023/04/26 00:22:04;;;;;;;12.90;7.10;;;;;;;6.10;71.63;97292.21;106920;1275;22539;-82
2023/04/26 00:24:32;;;;;;;14.50;6.30;;;;;;;6.07;71.62;97292.67;106934;1275;22617;-82
2023/04/26 00:27:00;;;;;;;12.10;6.50;;;;;;;6.03;71.78;97294.91;106938;1275;24059;-82
2023/04/26 00:29:28;;;;;;;11.10;7.10;;;;;;;6.00;72.00;97296.02;106707;1275;25395;-83
2023/04/26 00:31:56;;;;;;;14.50;7.50;;;;;;;5.96;71.88;97294.08;106748;1275;24372;-82
2023/04/26 00:34:24;;;;;;;13.50;7.40;;;;;;;5.89;72.16;97295.35;106948;1275;22532;-83
2023/04/26 00:36:52;;;;;;;11.80;7.10;;;;;;;5.84;72.16;97299.46;106720;1275;26717;-82
2023/04/26 00:39:21;;;;;;;13.30;7.00;;;;;;;5.80;72.57;97296.61;106965;1275;26525;-82
2023/04/26 00:41:49;;;;;;;12.60;7.20;;;;;;;5.78;72.93;97299.30;106997;1275;22547;-81
2023/04/26 00:44:17;;;;;;;11.80;7.70;;;;;;;5.78;72.98;97300.36;106982;1275;22528;-82
2023/04/26 00:46:45;;;;;;;13.60;7.00;;;;;;;5.75;73.20;97303.88;106978;1275;22517;-82
2023/04/26 00:49:15;;;;;;;14.90;7.80;;;;;;;5.67;73.37;97304.86;107546;1275;24004;-82
2023/04/26 00:51:44;;;;;;;16.20;8.80;;;;;;;5.62;73.55;97300.98;107612;1275;22525;-82
2023/04/26 00:54:14;;;;;;;12.70;7.40;;;;;;;5.59;74.06;97300.76;107145;1275;24295;-84
2023/04/26 00:56:43;;;;;;;18.10;8.60;;;;;;;5.58;73.84;97299.16;107071;1275;24295;-84
2023/04/26 00:59:11;;;;;;;13.90;8.30;;;;;;;5.55;73.98;97300.80;107121;1275;25329;-84
2023/04/26 01:01:41;;;;;;;18.20;9.80;;;;;;;5.53;74.34;97304.07;106913;1275;22678;-83
2023/04/26 01:04:09;;;;;;;13.00;9.20;;;;;;;5.49;74.25;97300.52;106978;1275;24244;-81
2023/04/26 01:06:40;;;;;;;15.40;8.40;;;;;;;5.42;74.35;97296.20;106970;1275;22511;-81
2023/04/26 01:09:10;;;;;;;12.70;8.40;;;;;;;5.43;75.03;97300.04;106866;1275;25308;-81
2023/04/26 01:11:38;;;;;;;15.10;7.70;;;;;;;5.41;75.91;97308.17;106890;1275;25390;-81
2023/04/26 01:14:07;;;;;;;14.10;8.50;;;;;;;5.38;75.84;97308.09;106797;1275;22936;-81
2023/04/26 01:16:35;;;;;;;17.90;9.20;;;;;;;5.34;75.67;97309.08;106979;1275;25258;-81
2023/04/26 01:19:08;;;;;;;12.90;7.90;;;;;;;5.30;75.67;97317.60;106910;1275;24259;-81
2023/04/26 01:21:36;;;;;;;13.90;8.00;;;;;;;5.28;75.68;97314.36;107005;1275;22627;-81
2023/04/26 01:24:05;;;;;;;13.90;7.40;;;;;;;5.28;76.24;97325.69;106936;1275;22572;-82
2023/04/26 01:26:33;;;;;;;14.10;7.40;;;;;;;5.28;75.95;97321.27;106733;1275;24487;-82
2023/04/26 01:29:21;;;;;;;13.50;7.30;;;;;;;5.26;75.99;97322.52;106957;1275;25456;-82
2023/04/26 01:31:49;;;;;;;13.40;7.30;;;;;;;5.21;75.57;97324.51;106949;1275;22548;-82
2023/04/26 01:34:17;;;;;;;15.00;7.80;;;;;;;5.17;75.58;97329.35;106964;1275;22735;-83
2023/04/26 01:36:46;;;;;;;14.60;7.70;;;;;;;5.11;75.83;97328.58;106717;1275;22620;-82
2023/04/26 01:39:13;;;;;;;14.10;7.40;;;;;;;5.06;75.81;97328.41;106688;1276;22530;-82
2023/04/26 01:41:42;;;;;;;14.80;8.10;;;;;;;5.06;76.29;97330.54;106658;1276;22543;-82
2023/04/26 01:44:10;;;;;;;17.70;8.60;;;;;;;5.02;76.16;97337.40;106840;1275;24543;-82
2023/04/26 01:46:38;;;;;;;18.70;8.40;;;;;;;4.98;75.96;97337.16;107020;1275;22573;-82
2023/04/26 01:49:06;;;;;;;17.00;7.80;;;;;;;4.91;76.07;97340.60;106987;1275;24227;-82
2023/04/26 01:51:35;;;;;;;15.40;7.70;;;;;;;4.85;76.08;97338.98;106935;1275;22640;-82
2023/04/26 01:54:03;;;;;;;15.00;7.60;;;;;;;4.80;76.39;97344.41;106843;1275;24241;-82
2023/04/26 01:56:32;;;;;;;14.70;7.60;;;;;;;4.75;76.51;97341.11;107273;1275;22793;-83
2023/04/26 01:59:00;;;;;;;14.60;7.70;;;;;;;4.72;77.05;97346.20;107709;1275;22547;-80
2023/04/26 02:01:30;;;;;;;16.40;8.90;;;;;;;4.68;77.10;97350.87;107360;1275;24199;-82
2023/04/26 02:03:58;;;;;;;21.00;9.20;;;;;;;4.62;77.49;97352.01;106981;1275;24282;-82
2023/04/26 02:06:26;;;;;;;17.80;9.00;;;;;;;4.56;77.49;97353.05;107014;1275;22595;-81
2023/04/26 02:08:55;;;;;;;18.50;10.30;;;;;;;4.55;77.47;97355.45;106949;1275;24394;-82
2023/04/26 02:11:25;;;;;;;18.60;9.30;;;;;;;4.50;77.78;97355.52;106839;1275;22540;-82
2023/04/26 02:13:53;;;;;;;17.10;10.90;;;;;;;4.44;77.69;97350.80;106929;1275;25242;-82
2023/04/26 02:16:21;;;;;;;15.50;9.70;;;;;;;4.34;77.55;97347.95;106933;1275;22527;-82
2023/04/26 02:18:49;;;;;;;16.90;9.60;;;;;;;4.30;77.55;97350.15;106919;1275;22637;-82
2023/04/26 02:21:18;;;;;;;18.30;9.80;;;;;;;4.26;78.04;97352.23;106950;1275;22577;-81
2023/04/26 02:23:47;;;;;;;14.70;9.50;;;;;;;4.22;78.00;97356.79;106965;1275;25281;-82
2023/04/26 02:26:15;;;;;;;17.70;9.80;;;;;;;4.16;78.06;97354.56;106844;1275;22650;-82
2023/04/26 02:28:43;;;;;;;15.40;9.50;;;;;;;4.08;77.92;97356.23;106971;1275;22824;-83
2023/04/26 02:31:11;;;;;;;20.40;9.60;;;;;;;4.06;78.31;97363.59;106936;1275;22677;-81
2023/04/26 02:33:40;;;;;;;15.30;8.80;;;;;;;4.05;78.28;97365.51;106671;1275;24426;-82
2023/04/26 02:36:08;;;;;;;17.10;9.00;;;;;;;4.03;78.59;97361.77;106951;1275;24189;-83
2023/04/26 02:38:36;;;;;;;18.60;10.50;;;;;;;3.97;78.65;97359.18;106693;1275;22780;-83
2023/04/26 02:41:05;;;;;;;18.90;10.40;;;;;;;3.91;78.12;97357.70;106990;1275;22667;-82
2023/04/26 02:43:33;;;;;;;17.70;9.20;;;;;;;3.84;78.03;97360.58;106637;1275;22537;-82
2023/04/26 02:46:01;;;;;;;15.70;8.80;;;;;;;3.81;78.63;97362.91;106965;1275;22553;-82
2023/04/26 02:48:30;;;;;;;14.10;7.80;;;;;;;3.77;78.33;97362.60;106927;1275;24364;-81
2023/04/26 02:50:58;;;;;;;14.30;8.10;;;;;;;3.73;78.12;97364.73;106950;1275;22651;-82
2023/04/26 02:53:26;;;;;;;13.80;7.50;;;;;;;3.67;78.10;97362.40;106674;1275;25469;-81
2023/04/26 02:55:55;;;;;;;14.70;8.40;;;;;;;3.61;77.93;97365.38;106994;1275;24428;-81
2023/04/26 02:58:23;;;;;;;14.50;7.80;;;;;;;3.57;78.18;97363.04;106742;1275;24262;-83
2023/04/26 03:00:53;;;;;;;16.40;8.70;;;;;;;3.53;78.32;97364.69;106991;1275;22583;-83
2023/04/26 03:03:21;;;;;;;14.40;7.90;;;;;;;3.50;78.11;97360.21;106877;1275;24053;-81
2023/04/26 03:05:50;;;;;;;14.30;9.00;;;;;;;3.45;77.98;97360.95;107987;1275;24264;-81
2023/04/26 03:08:18;;;;;;;17.40;8.90;;;;;;;3.41;77.91;97365.91;108356;1275;22521;-82
2023/04/26 03:10:46;;;;;;;13.90;8.90;;;;;;;3.36;77.85;97368.04;107309;1275;24223;-81
2023/04/26 03:13:14;;;;;;;15.70;8.40;;;;;;;3.33;78.06;97368.14;106899;1275;22520;-82
2023/04/26 03:15:45;;;;;;;15.90;9.80;;;;;;;3.34;77.99;97371.28;106671;1275;25378;-85
2023/04/26 03:18:13;;;;;;;15.60;9.20;;;;;;;3.33;78.30;97374.20;106837;1275;22523;-83
2023/04/26 03:20:41;;;;;;;13.10;8.50;;;;;;;3.28;77.81;97374.95;106896;1275;22541;-81
2023/04/26 03:23:09;;;;;;;12.10;8.70;;;;;;;3.24;78.27;97376.86;106751;1275;22735;-80
2023/04/26 03:25:38;;;;;;;11.80;8.00;;;;;;;3.14;78.54;97380.42;106796;1275;22944;-81
2023/04/26 03:28:07;;;;;;;14.50;8.50;;;;;;;3.11;78.62;97386.20;106863;1275;22515;-80
2023/04/26 03:30:36;;;;;;;13.70;8.00;;;;;;;3.08;78.97;97387.25;106681;1275;22790;-81
2023/04/26 03:33:05;;;;;;;15.10;8.40;;;;;;;3.05;78.83;97388.42;106776;1275;22721;-80
2023/04/26 03:35:33;;;;;;;15.40;8.40;;;;;;;3.00;79.05;97388.52;106564;1275;25380;-81
2023/04/26 03:38:01;;;;;;;15.10;8.80;;;;;;;2.94;78.90;97386.95;106797;1275;24340;-81
2023/04/26 03:40:29;;;;;;;12.70;7.60;;;;;;;2.89;78.92;97390.46;106962;1275;22537;-80
2023/04/26 03:42:57;;;;;;;17.30;8.10;;;;;;;2.88;79.38;97393.01;106776;1275;22650;-81
2023/04/26 03:45:25;;;;;;;13.30;7.60;;;;;;;2.86;79.28;97393.80;106637;1276;22553;-80
2023/04/26 03:47:54;;;;;;;14.20;8.30;;;;;;;2.84;79.41;97399.81;106684;1276;22684;-81
2023/04/26 03:50:22;;;;;;;14.00;8.20;;;;;;;2.83;79.26;97402.25;106765;1275;22573;-81
2023/04/26 03:52:51;;;;;;;15.30;7.90;;;;;;;2.79;79.56;97405.84;106936;1275;24465;-81
2023/04/26 03:55:19;;;;;;;18.30;8.50;;;;;;;2.79;80.17;97406.02;107009;1275;24260;-81
2023/04/26 03:57:52;;;;;;;15.60;8.90;;;;;;;2.77;79.72;97413.61;106969;1275;22518;-80
2023/04/26 04:00:23;;;;;;;17.40;9.00;;;;;;;2.77;79.89;97420.48;106979;1275;22865;-90
2023/04/26 04:02:52;;;;;;;12.20;7.10;;;;;;;2.74;79.93;97421.95;106884;1275;24226;-85
2023/04/26 04:05:23;;;;;;;13.80;8.10;;;;;;;2.73;80.29;97426.73;106775;1275;22627;-85
2023/04/26 04:07:51;;;;;;;16.80;8.20;;;;;;;2.75;80.34;97429.46;106986;1275;25478;-84
2023/04/26 04:10:21;;;;;;;13.10;8.40;;;;;;;2.77;80.12;97436.06;106984;1275;22785;-82
2023/04/26 04:12:51;;;;;;;15.90;8.00;;;;;;;2.77;80.18;97436.66;106998;1275;22524;-82
2023/04/26 04:15:20;;;;;;;15.30;7.60;;;;;;;2.78;80.14;97440.65;106680;1275;24232;-82
2023/04/26 04:17:48;;;;;;;15.40;8.80;;;;;;;2.78;79.94;97442.02;107168;1275;22654;-79
2023/04/26 04:20:17;;;;;;;13.80;7.60;;;;;;;2.81;80.23;97441.63;106780;1275;22737;-79
2023/04/26 04:22:45;;;;;;;15.90;8.40;;;;;;;2.87;80.31;97447.13;106761;1275;24124;-79
2023/04/26 04:25:13;;;;;;;13.20;9.20;;;;;;;2.92;80.26;97447.05;106842;1275;22520;-80
2023/04/26 04:27:44;;;;;;;18.40;10.50;;;;;;;2.94;80.42;97446.56;106805;1275;26602;-79
2023/04/26 04:30:13;;;;;;;19.00;10.90;;;;;;;2.95;80.29;97455.09;106747;1275;22536;-81
2023/04/26 04:32:43;;;;;;;16.20;10.90;;;;;;;3.00;80.64;97454.21;106955;1275;25328;-79
2023/04/26 04:35:13;;;;;;;20.50;12.70;;;;;;;3.07;80.82;97455.23;106926;1275;22540;-81
2023/04/26 04:37:42;;;;;;;18.60;13.40;;;;;;;3.12;80.75;97459.15;106820;1275;22575;-82
2023/04/26 04:40:12;;;;;;;22.60;13.70;;;;;;;3.17;80.39;97460.81;106720;1275;22629;-82
2023/04/26 04:42:43;;;;;;;22.10;13.40;;;;;;;3.22;80.37;97463.17;106937;1275;22574;-82
2023/04/26 04:45:13;;;;;;;17.40;14.00;;;;;;;3.27;80.35;97462.97;107057;1275;22531;-81
2023/04/26 04:47:44;;;;;;;19.40;11.90;;;;;;;3.35;80.52;97464.91;106985;1275;25384;-78
2023/04/26 04:50:13;;;;;;;19.20;12.50;;;;;;;3.65;81.34;97467.00;106853;1275;22643;-77
2023/04/26 04:52:42;;;;;;;19.70;12.50;;;;;;;3.93;80.67;97470.33;106914;1275;24185;-81
2023/04/26 04:55:11;;;;;;;17.90;12.30;;;;;;;3.95;80.02;97468.05;107002;1275;22636;-79
2023/04/26 04:57:40;;;;;;;17.70;12.20;;;;;;;3.93;79.14;97470.61;107035;1275;22472;-78
2023/04/26 05:00:11;;;;;;;16.60;11.40;;;;;;;3.87;78.97;97470.60;106811;1275;22930;-79
2023/04/26 05:02:58;;;;;;;17.70;11.60;;;;;;;3.83;78.94;97474.05;106991;1275;22527;-79
2023/04/26 05:05:27;;;;;;;24.00;12.10;;;;;;;3.88;78.90;97471.71;107233;1275;22541;-79
2023/04/26 05:07:55;;;;;;;19.90;12.00;;;;;;;3.88;78.78;97477.05;107118;1275;22532;-79
2023/04/26 05:10:24;;;;;;;19.20;10.80;;;;;;;3.90;78.97;97481.21;106856;1275;24857;-79
2023/04/26 05:12:53;;;;;;;16.20;11.40;;;;;;;3.93;78.51;97484.67;106847;1275;22648;-78
2023/04/26 05:15:21;;;;;;;17.30;11.30;;;;;;;3.99;78.40;97476.04;106802;1275;25396;-79
2023/04/26 05:17:50;;;;;;;18.40;13.30;;;;;;;4.01;78.41;97486.44;106748;1275;22796;-78
2023/04/26 05:20:21;;;;;;;19.50;11.10;;;;;;;4.04;78.14;97485.90;107008;1275;22633;-78
2023/04/26 05:22:50;;;;;;;17.10;10.50;;;;;;;4.10;78.08;97492.15;106808;1275;23322;-79
2023/04/26 05:25:19;;;;;;;17.10;10.80;;;;;;;4.15;77.58;97493.00;106883;1275;22533;-78
2023/04/26 05:27:53;;;;;;;17.40;11.60;;;;;;;4.21;77.95;97495.55;106847;1275;24278;-78
2023/04/26 05:30:42;;;;;;;17.80;10.60;;;;;;;4.26;76.59;97502.60;106886;1275;22635;-78
2023/04/26 05:33:19;;;;;;;16.40;9.90;;;;;;;4.24;76.38;97499.93;106954;1275;24263;-79
2023/04/26 05:36:11;;;;;;;14.60;9.70;;;;;;;4.26;75.94;97500.67;106911;1275;22516;-79
2023/04/26 05:38:40;;;;;;;22.80;16.40;;;;;;;4.28;75.88;97502.65;106723;1275;22940;-79
2023/04/26 05:41:09;;;;;;;19.20;10.40;;;;;;;4.33;76.30;97501.11;106943;1275;25570;-79
2023/04/26 05:43:38;;;;;;;17.70;9.30;;;;;;;4.42;75.64;97501.58;106901;1272;25326;-79
2023/04/26 05:46:06;;;;;;;15.20;9.10;;;;;;;4.51;76.00;97497.04;106885;1275;22666;-79
2023/04/26 05:48:34;;;;;;;16.20;8.30;;;;;;;4.63;75.46;97499.74;106809;1275;160832;-79
2023/04/26 05:51:03;;;;;;;15.50;7.90;;;;;;;4.72;74.89;97495.55;106843;1275;22535;-79
2023/04/26 05:53:32;;;;;;;15.40;8.50;;;;;;;4.81;74.22;97499.86;106972;1275;25322;-78
2023/04/26 05:56:01;;;;;;;16.00;8.40;;;;;;;4.85;73.58;97501.29;106910;1275;22515;-77
2023/04/26 05:58:29;;;;;;;16.40;8.20;;;;;;;4.87;73.11;97500.34;106716;1275;25265;-78
2023/04/26 06:00:57;;;;;;;15.00;8.40;;;;;;;4.94;73.62;97502.81;106670;1275;25967;-77
2023/04/26 06:03:25;;;;;;;15.20;7.00;;;;;;;5.06;73.79;97506.23;106760;1275;22530;-77
2023/04/26 06:05:54;;;;;;;15.60;7.70;;;;;;;5.18;72.30;97508.71;106886;1275;24269;-77
2023/04/26 06:08:23;;;;;;;12.10;5.70;;;;;;;5.23;71.99;97505.81;106719;1275;22754;-78
2023/04/26 06:10:51;;;;;;;13.60;6.00;;;;;;;5.28;70.71;97513.48;106954;1275;22633;-78
2023/04/26 06:13:19;;;;;;;10.50;5.90;;;;;;;5.31;70.71;97515.96;106926;1272;22718;-80
2023/04/26 06:15:46;;;;;;;11.20;6.30;;;;;;;5.27;69.06;97514.61;106982;1275;22768;-79
2023/04/26 06:18:15;;;;;;;10.00;5.20;;;;;;;5.25;68.95;97508.58;106762;1275;23933;-79
2023/04/26 06:20:45;;;;;;;13.40;5.80;;;;;;;5.29;68.82;97508.78;106888;1275;24184;-78
2023/04/26 06:23:13;;;;;;;12.70;6.30;;;;;;;5.34;69.31;97512.55;106936;1275;25265;-78
2023/04/26 06:25:44;;;;;;;11.50;5.40;;;;;;;5.46;68.88;97514.09;106949;1275;22607;-79
2023/04/26 06:28:12;;;;;;;12.00;6.10;;;;;;;5.58;67.90;97519.02;106997;1275;22636;-78
2023/04/26 06:30:41;;;;;;;13.20;6.00;;;;;;;5.60;66.77;97516.00;106955;1275;22521;-78
2023/04/26 06:33:09;;;;;;;10.80;5.50;;;;;;;5.61;65.84;97518.36;107038;1275;25389;-78
2023/04/26 06:35:40;;;;;;;12.60;5.70;;;;;;;5.63;66.14;97515.45;106943;1275;22530;-78
2023/04/26 06:38:11;;;;;;;12.80;6.10;;;;;;;5.75;66.38;97513.31;106766;1275;25332;-80
2023/04/26 06:40:40;;;;;;;11.80;5.50;;;;;;;5.89;65.56;97514.23;106793;1275;22533;-78
2023/04/26 06:43:08;;;;;;;10.70;4.70;;;;;;;6.02;65.61;97515.84;106606;1275;23154;-79
2023/04/26 06:46:05;;;;;;;9.50;4.90;;;;;;;6.15;64.03;97521.46;106786;1275;22529;-78
2023/04/26 06:48:33;;;;;;;7.90;4.80;;;;;;;6.15;62.64;97515.26;106619;1275;25451;-78
2023/04/26 06:51:07;;;;;;;8.60;5.20;;;;;;;6.10;62.12;97521.45;106914;1275;22527;-78
2023/04/26 06:53:35;;;;;;;9.30;4.90;;;;;;;6.11;63.12;97523.63;107008;1275;25539;-78
2023/04/26 06:56:04;;;;;;;12.40;5.40;;;;;;;6.20;62.52;97523.98;106932;1275;25246;-79
2023/04/26 06:58:32;;;;;;;10.70;5.50;;;;;;;6.24;62.42;97526.96;106930;1275;22534;-79
2023/04/26 07:01:00;;;;;;;12.10;5.60;;;;;;;6.32;61.65;97528.45;106739;1275;22676;-78
2023/04/26 07:03:28;;;;;;;11.30;6.20;;;;;;;6.33;60.95;97531.33;106989;1275;22864;-79
2023/04/26 07:05:56;;;;;;;13.10;6.00;;;;;;;6.37;60.25;97526.11;106946;1275;22643;-78
2023/04/26 07:08:24;;;;;;;10.40;5.10;;;;;;;6.44;59.88;97525.14;106881;1275;22524;-78
2023/04/26 07:10:54;;;;;;;10.90;6.00;;;;;;;6.42;59.27;97530.95;106603;1275;24190;-78
2023/04/26 07:13:22;;;;;;;12.60;5.50;;;;;;;6.42;59.26;97533.23;106988;1275;22517;-78
2023/04/26 07:15:50;;;;;;;12.10;6.30;;;;;;;6.32;58.65;97532.05;106897;1275;24062;-78
2023/04/26 07:18:18;;;;;;;10.80;6.30;;;;;;;6.25;58.11;97531.98;106915;1275;25592;-78
2023/04/26 07:20:46;;;;;;;10.80;5.70;;;;;;;6.12;58.53;97536.56;106971;1275;22591;-78
2023/04/26 07:23:14;;;;;;;13.60;5.90;;;;;;;6.10;58.75;97544.04;106878;1275;23306;-78
2023/04/26 07:25:42;;;;;;;14.10;6.40;;;;;;;6.14;58.11;97529.77;106796;1275;22630;-78
2023/04/26 07:28:10;;;;;;;12.30;6.20;;;;;;;6.18;58.66;97536.05;107034;1275;22753;-78
2023/04/26 07:30:38;;;;;;;13.40;5.90;;;;;;;6.31;58.35;97538.73;106947;1275;25403;-79
2023/04/26 07:33:06;;;;;;;11.10;5.80;;;;;;;6.33;58.28;97547.23;106956;1272;22528;-78
2023/04/26 07:35:34;;;;;;;15.10;6.10;;;;;;;6.49;58.89;97546.79;106932;1275;24364;-78
2023/04/26 07:38:03;;;;;;;9.90;5.10;;;;;;;6.67;59.22;97544.54;106932;1275;25396;-80
2023/04/26 07:40:31;;;;;;;8.90;5.00;;;;;;;6.72;59.21;97546.84;106785;1275;26512;-78
2023/04/26 07:42:59;;;;;;;8.20;4.90;;;;;;;6.69;58.50;97551.53;107010;1275;25607;-77
2023/04/26 07:45:27;;;;;;;12.30;5.90;;;;;;;6.52;58.78;97554.08;106806;1275;25197;-78
2023/04/26 07:47:55;;;;;;;9.80;4.60;;;;;;;6.51;59.09;97556.34;106939;1275;22520;-79
2023/04/26 07:50:23;;;;;;;10.50;5.00;;;;;;;6.53;59.09;97549.95;106977;1275;22520;-78
2023/04/26 07:52:51;;;;;;;9.60;4.90;;;;;;;6.54;59.22;97556.70;106938;1275;22630;-79
2023/04/26 07:55:20;;;;;;;10.70;5.10;;;;;;;6.57;59.45;97549.98;106962;1275;22531;-78
2023/04/26 07:57:48;;;;;;;8.90;4.90;;;;;;;6.64;58.72;97560.68;106942;1275;22532;-79
2023/04/26 08:00:17;;;;;;;12.00;5.80;;;;;;;6.71;58.07;97552.42;106994;1275;25319;-79
2023/04/26 08:02:45;;;;;;;10.40;5.00;;;;;;;6.87;57.31;97560.52;106985;1275;22530;-79
2023/04/26 08:05:14;;;;;;;7.70;4.60;;;;;;;7.09;57.23;97557.26;106959;1275;23791;-78
2023/04/26 08:07:43;;;;;;;8.00;4.40;;;;;;;7.19;56.38;97565.45;106986;1275;25371;-79
2023/04/26 08:10:11;;;;;;;11.10;4.90;;;;;;;7.15;56.21;97568.81;106911;1275;23241;-79
2023/04/26 08:12:39;;;;;;;6.90;4.30;;;;;;;7.04;56.20;97560.09;106895;1275;24422;-78
2023/04/26 08:15:08;;;;;;;8.20;5.10;;;;;;;7.01;56.53;97553.05;106963;1275;24104;-78
2023/04/26 08:17:36;;;;;;;8.30;4.30;;;;;;;7.09;56.50;97566.35;106992;1275;22731;-79
2023/04/26 08:20:05;;;;;;;8.20;4.70;;;;;;;7.21;56.11;97564.63;106939;1275;25370;-79
2023/04/26 08:22:33;;;;;;;12.90;5.70;;;;;;;7.30;55.72;97563.46;106901;1275;22630;-79
2023/04/26 08:25:01;;;;;;;11.90;4.80;;;;;;;7.43;55.70;97554.84;106959;1253;22649;-79
2023/04/26 08:27:29;;;;;;;10.20;5.10;;;;;;;7.61;54.60;97561.60;107035;1275;22557;-80
2023/04/26 08:29:57;;;;;;;8.40;4.80;;;;;;;7.63;54.60;97559.63;107040;1275;25453;-79
2023/04/26 08:32:25;;;;;;;8.40;4.90;;;;;;;7.56;54.74;97555.00;106978;1275;22529;-79
2023/04/26 08:34:53;;;;;;;11.00;5.10;;;;;;;7.44;54.95;97563.19;106918;1275;25367;-79
2023/04/26 08:37:21;;;;;;;11.60;6.10;;;;;;;7.27;54.82;97566.53;106898;1275;22758;-79
2023/04/26 08:39:49;;;;;;;10.30;6.40;;;;;;;7.06;55.75;97564.85;106926;1275;22579;-78
2023/04/26 08:42:17;;;;;;;10.80;6.00;;;;;;;6.97;56.17;97562.95;106892;1275;22619;-78
2023/04/26 08:44:45;;;;;;;9.80;5.70;;;;;;;6.95;56.69;97570.73;106836;1272;22541;-78
2023/04/26 08:47:35;;;;;;;11.40;5.30;;;;;;;6.95;56.70;97577.70;106945;1275;24062;-79
2023/04/26 08:50:05;;;;;;;9.40;5.30;;;;;;;6.78;56.99;97574.01;106989;1275;22514;-79
2023/04/26 08:52:34;;;;;;;8.20;5.30;;;;;;;6.65;57.62;97581.77;106945;1275;25323;-79
2023/04/26 08:55:05;;;;;;;10.40;5.50;;;;;;;6.56;57.42;97579.54;106990;1275;22531;-78
2023/04/26 08:57:33;;;;;;;14.10;6.20;;;;;;;6.49;57.95;97578.96;106977;1275;22535;-78
2023/04/26 09:00:09;;;;;;;14.30;5.90;;;;;;;6.56;58.24;97576.86;106742;1275;24411;-78
2023/04/26 09:02:40;;;;;;;8.80;5.30;;;;;;;6.83;57.67;97570.16;106952;1275;24823;-79
2023/04/26 09:05:09;;;;;;;13.30;4.80;;;;;;;7.19;56.91;97567.42;106933;1275;25431;-78
2023/04/26 09:07:42;;;;;;;9.70;5.00;;;;;;;7.50;55.78;97567.73;106957;1275;22924;-77
2023/04/26 09:10:11;;;;;;;8.30;4.90;;;;;;;7.49;54.28;97575.45;106929;1275;22789;-78
2023/04/26 09:12:39;;;;;;;16.10;6.50;;;;;;;7.31;55.20;97595.27;106716;1275;22526;-78
2023/04/26 09:15:08;;;;;;;9.90;5.10;;;;;;;6.96;58.01;97607.23;106593;1275;24046;-78
2023/04/26 09:17:40;;;;;;;10.30;5.90;;;;;;;6.49;59.02;97592.77;106944;1275;25485;-78
2023/04/26 09:20:30;;;;;;;12.30;6.00;;;;;;;6.27;60.36;97582.75;107000;1275;22594;-78
2023/04/26 09:23:06;;;;;;;12.60;5.70;;;;;;;6.39;60.19;97584.17;106995;1275;24357;-79
2023/04/26 09:25:34;;;;;;;9.10;5.00;;;;;;;6.74;59.49;97588.92;106981;1275;25374;-79
2023/04/26 09:28:03;;;;;;;8.90;5.10;;;;;;;7.01;57.91;97605.39;106930;1275;22641;-79
2023/04/26 09:30:38;;;;;;;10.70;4.60;;;;;;;6.91;57.44;97594.34;106924;1275;22547;-78
2023/04/26 09:33:08;;;;;;;6.20;3.80;;;;;;;6.75;54.61;97592.73;107006;1275;25342;-78
2023/04/26 09:35:38;;;;;;;10.60;4.90;;;;;;;6.58;54.82;97590.45;106967;1275;24150;-79
2023/04/26 09:38:17;;;;;;;7.80;4.80;;;;;;;6.53;55.53;97585.19;106831;1275;23888;-79
2023/04/26 09:40:49;;;;;;;10.50;4.70;;;;;;;6.61;56.06;97582.06;107012;1275;24251;-78
2023/04/26 09:43:20;;;;;;;8.40;4.10;;;;;;;6.65;55.08;97601.80;106910;1275;22722;-81
2023/04/26 09:45:57;;;;;;;18.90;6.30;;;;;;;6.63;53.01;97591.48;107136;1275;22583;-78
2023/04/26 09:48:30;;;;;;;11.20;4.70;;;;;;;6.61;53.25;97593.59;107002;1275;24235;-78
2023/04/26 09:51:10;;;;;;;9.70;4.70;;;;;;;6.67;53.04;97592.41;106780;1276;25364;-77
2023/04/26 09:53:49;;;;;;;8.30;4.10;;;;;;;6.70;52.53;97592.88;106970;1275;24526;-79
2023/04/26 09:56:19;;;;;;;10.60;4.80;;;;;;;6.70;52.33;97590.34;106902;1275;22546;-79
2023/04/26 09:58:57;;;;;;;10.30;4.50;;;;;;;6.84;52.84;97586.69;107074;1275;25361;-78
2023/04/26 10:01:32;;;;;;;8.90;4.90;;;;;;;7.16;52.06;97583.33;106944;1275;22831;-79
2023/04/26 10:04:00;;;;;;;9.50;4.20;;;;;;;7.31;52.06;97597.91;106987;1275;25800;-77
2023/04/26 10:06:29;;;;;;;9.30;5.40;;;;;;;7.22;51.40;97604.27;106694;1275;23105;-79
2023/04/26 10:08:57;;;;;;;8.40;4.70;;;;;;;7.11;52.00;97594.05;106897;1275;25345;-79
2023/04/26 10:11:25;;;;;;;9.10;4.70;;;;;;;6.99;52.76;97593.36;106892;1275;25415;-80
2023/04/26 10:13:54;;;;;;;11.70;4.70;;;;;;;6.92;53.20;97587.90;106922;1275;24344;-79
2023/04/26 10:16:23;;;;;;;6.20;4.00;;;;;;;6.94;52.69;97588.16;106876;1275;24209;-79
2023/04/26 10:18:51;;;;;;;6.80;4.20;;;;;;;7.05;52.40;97582.05;106983;1275;22529;-78
2023/04/26 10:21:26;;;;;;;7.60;4.10;;;;;;;7.48;53.03;97578.10;106917;1275;22618;-78
2023/04/26 10:23:55;;;;;;;9.00;3.80;;;;;;;7.91;52.27;97580.25;106778;1275;23893;-78
2023/04/26 10:26:52;;;;;;;7.30;4.50;;;;;;;8.04;51.29;97589.67;106948;1275;22531;-78
2023/04/26 10:29:21;;;;;;;7.80;3.90;;;;;;;7.80;51.73;97599.91;106876;1275;22535;-78
2023/04/26 10:32:01;;;;;;;9.60;4.50;;;;;;;7.51;51.32;97596.25;106916;1275;25683;-79
2023/04/26 10:34:34;;;;;;;10.90;4.00;;;;;;;7.29;51.14;97597.50;106976;1257;22523;-80
2023/04/26 10:37:20;;;;;;;9.90;4.10;;;;;;;7.25;52.15;97592.17;106941;1275;22528;-80
2023/04/26 10:39:48;;;;;;;6.80;4.00;;;;;;;7.55;51.16;97590.02;106950;1275;22621;-79
2023/04/26 10:42:29;;;;;;;10.20;4.30;;;;;;;7.76;49.63;97580.33;107002;1275;22598;-79
2023/04/26 10:45:29;;;;;;;10.10;4.60;;;;;;;8.00;50.35;97580.29;106955;1275;22776;-81
2023/04/26 10:48:19;;;;;;;12.10;4.70;;;;;;;8.21;48.88;97588.79;107070;1275;22665;-79
2023/04/26 10:51:11;;;;;;;7.90;3.30;;;;;;;8.16;47.26;97587.46;106921;1275;24085;-80
2023/04/26 10:53:45;;;;;;;6.10;3.50;;;;;;;7.99;45.17;97601.52;107021;1275;25406;-79
2023/04/26 10:56:45;;;;;;;8.50;4.40;;;;;;;7.71;46.00;97591.45;107053;1275;22675;-79
2023/04/26 10:59:19;;;;;;;8.70;4.60;;;;;;;7.63;47.58;97597.39;106290;1284;25220;-80
2023/04/26 11:02:03;;;;;;;10.90;4.10;;;;;;;7.64;47.73;97595.02;106237;1284;22646;-79
2023/04/26 11:04:51;;;;;;;6.90;4.30;;;;;;;7.64;48.16;97592.83;106372;1284;22844;-78
2023/04/26 11:07:38;;;;;;;6.40;3.50;;;;;;;7.56;47.52;97603.05;106289;1284;22579;-79
2023/04/26 11:10:09;;;;;;;7.80;3.90;;;;;;;7.46;48.84;97606.70;106348;1284;24134;-79
2023/04/26 11:12:41;;;;;;;7.00;3.80;;;;;;;7.41;49.53;97606.11;106303;1284;25240;-78
2023/04/26 11:15:11;;;;;;;6.90;3.30;;;;;;;7.35;48.42;97601.89;106231;1284;22597;-78
2023/04/26 11:17:41;;;;;;;5.30;3.00;;;;;;;7.56;47.00;97595.12;106296;1284;24199;-79
2023/04/26 11:20:15;;;;;;;7.80;3.90;;;;;;;7.66;45.72;97595.27;106310;1284;24269;-78
2023/04/26 11:22:43;;;;;;;9.90;3.40;;;;;;;7.48;46.15;97603.62;106286;1284;23635;-79
2023/04/26 11:25:12;;;;;;;8.10;3.70;;;;;;;7.34;46.02;97603.19;106271;1284;22582;-80
2023/04/26 11:27:44;;;;;;;6.10;3.80;;;;;;;7.33;45.66;97614.23;106319;1284;24126;-79
2023/04/26 11:30:13;;;;;;;9.10;4.40;;;;;;;7.36;45.45;97603.91;106197;1284;25230;-80
2023/04/26 11:32:41;;;;;;;9.20;4.60;;;;;;;7.65;45.74;97595.27;106042;1284;22588;-81
2023/04/26 11:35:09;;;;;;;6.60;4.10;;;;;;;7.98;45.98;97603.34;106321;1276;25180;-80
2023/04/26 11:37:36;;;;;;;8.40;4.20;;;;;;;8.22;46.68;97608.33;106901;1275;25469;-78
2023/04/26 11:40:09;;;;;;;8.30;4.20;;;;;;;8.30;47.07;97610.36;106926;1275;24085;-78
2023/04/26 11:42:37;;;;;;;5.90;3.70;;;;;;;8.30;46.17;97612.45;106843;1275;22524;-79